createdAt,value
2023-01-29T00:01:13.835Z,77.60
2023-01-29T00:06:11.173Z,77.60
2023-01-29T00:08:40.069Z,77.70
2023-01-29T00:11:09.360Z,77.80
2023-01-29T00:18:39.761Z,77.40
2023-01-29T00:21:10.659Z,77.20
2023-01-29T00:31:09.397Z,76.00
2023-01-29T00:33:39.168Z,75.90
2023-01-29T00:36:11.663Z,75.80
2023-01-29T00:38:40.532Z,75.60
2023-01-29T00:41:27.249Z,75.90
2023-01-29T00:49:16.237Z,76.00
2023-01-29T01:04:52.352Z,75.60
2023-01-29T01:20:07.250Z,75.70
2023-01-29T01:35:14.905Z,75.80
2023-01-29T01:40:18.230Z,75.60
2023-01-29T01:45:22.058Z,75.60
2023-01-29T01:47:53.512Z,75.90
2023-01-29T01:50:31.639Z,76.00
2023-01-29T01:53:03.417Z,75.70
2023-01-29T01:55:34.354Z,75.40
2023-01-29T01:58:08.316Z,75.20
2023-01-29T02:03:24.382Z,75.90
2023-01-29T02:06:13.393Z,76.00
2023-01-29T02:09:08.138Z,75.80
2023-01-29T02:11:37.958Z,75.50
2023-01-29T02:19:08.086Z,75.50
2023-01-29T02:22:14.682Z,75.30
2023-01-29T02:25:10.957Z,75.60
2023-01-29T02:28:06.557Z,75.80
2023-01-29T02:30:42.684Z,76.00
2023-01-29T02:33:22.300Z,75.80
2023-01-29T02:35:58.680Z,75.60
2023-01-29T02:38:35.687Z,75.60
2023-01-29T02:41:09.242Z,75.90
2023-01-29T02:43:45.432Z,76.00
2023-01-29T02:46:19.949Z,76.00
2023-01-29T02:48:56.559Z,76.30
2023-01-29T02:51:32.954Z,76.20
2023-01-29T02:54:05.382Z,76.10
2023-01-29T02:56:39.895Z,76.20
2023-01-29T02:59:13.976Z,76.10
2023-01-29T03:01:47.602Z,76.30
2023-01-29T03:04:23.882Z,76.30
2023-01-29T03:06:58.298Z,76.40
2023-01-29T03:09:31.462Z,76.60
2023-01-29T03:12:19.939Z,76.60
2023-01-29T03:15:10.064Z,76.60
2023-01-29T03:17:43.002Z,76.50
2023-01-29T03:20:17.611Z,76.60
2023-01-29T03:22:50.448Z,76.60
2023-01-29T03:25:39.642Z,76.70
2023-01-29T03:28:27.502Z,76.70
2023-01-29T03:31:19.916Z,76.60
2023-01-29T03:33:59.365Z,76.70
2023-01-29T03:36:38.138Z,77.10
2023-01-29T03:41:39.638Z,78.50
2023-01-29T03:44:15.619Z,77.20
2023-01-29T03:46:54.545Z,77.20
2023-01-29T03:49:31.501Z,76.90
2023-01-29T03:52:08.790Z,76.60
2023-01-29T03:54:46.811Z,76.90
2023-01-29T03:57:21.265Z,77.10
2023-01-29T03:59:58.424Z,77.30
2023-01-29T04:02:52.822Z,77.60
2023-01-29T04:05:23.714Z,77.40
2023-01-29T04:08:12.180Z,77.60
2023-01-29T04:10:44.042Z,77.30
2023-01-29T04:13:15.398Z,77.40
2023-01-29T04:15:51.854Z,77.40
2023-01-29T04:18:27.137Z,77.00
2023-01-29T04:26:28.021Z,77.00
2023-01-29T04:29:16.495Z,77.00
2023-01-29T04:31:53.482Z,76.90
2023-01-29T04:34:28.330Z,77.00
2023-01-29T04:37:07.638Z,77.20
2023-01-29T04:39:44.746Z,77.20
2023-01-29T04:42:19.882Z,77.20
2023-01-29T04:44:55.634Z,77.30
2023-01-29T04:47:34.464Z,77.50
2023-01-29T04:50:14.819Z,77.40
2023-01-29T04:52:51.841Z,77.60
2023-01-29T04:55:26.405Z,77.30
2023-01-29T04:58:02.431Z,77.90
2023-01-29T05:00:34.246Z,77.70
2023-01-29T05:03:03.900Z,77.90
2023-01-29T05:05:33.901Z,77.80
2023-01-29T05:13:03.857Z,77.60
2023-01-29T05:15:38.151Z,77.20
2023-01-29T05:20:42.189Z,77.60
2023-01-29T05:23:17.562Z,77.50
2023-01-29T05:25:46.805Z,77.30
2023-01-29T05:30:46.130Z,77.50
2023-01-29T05:33:17.212Z,77.30
2023-01-29T05:35:47.060Z,77.30
2023-01-29T05:43:17.659Z,77.10
2023-01-29T05:45:53.726Z,77.40
2023-01-29T05:50:52.090Z,77.20
2023-01-29T05:55:49.470Z,77.20
2023-01-29T06:03:17.032Z,77.50
2023-01-29T06:08:15.002Z,77.50
2023-01-29T06:25:41.110Z,77.20
2023-01-29T06:33:08.586Z,77.90
2023-01-29T06:43:03.573Z,77.20
2023-01-29T06:57:55.213Z,96.60
2023-01-29T07:00:24.870Z,77.10
2023-01-29T07:17:58.935Z,76.50
2023-01-29T07:30:21.420Z,86.70
2023-01-29T07:35:19.350Z,77.20
2023-01-29T07:37:50.376Z,77.00
2023-01-29T07:50:13.362Z,76.90
2023-01-29T07:52:42.817Z,76.40
2023-01-29T07:55:11.186Z,76.50
2023-01-29T08:00:08.733Z,76.90
2023-01-29T08:05:09.806Z,76.80
2023-01-29T08:10:08.041Z,78.00
2023-01-29T08:27:37.872Z,76.70
2023-01-29T08:44:58.459Z,76.30
2023-01-29T08:57:24.912Z,95.10
2023-01-29T09:02:22.978Z,75.80
2023-01-29T09:19:45.067Z,75.90
2023-01-29T09:32:08.412Z,77.00
2023-01-29T09:37:06.503Z,76.10
2023-01-29T09:40:00.060Z,75.40
2023-01-29T09:42:36.195Z,75.20
2023-01-29T09:45:11.958Z,75.10
2023-01-29T09:50:13.404Z,74.40
2023-01-29T09:52:47.576Z,74.30
2023-01-29T09:55:23.804Z,74.40
2023-01-29T09:57:55.279Z,73.80
2023-01-29T10:00:30.411Z,74.10
2023-01-29T10:03:17.576Z,73.60
2023-01-29T10:05:57.350Z,73.50
2023-01-29T10:09:03.591Z,73.50
2023-01-29T10:11:43.986Z,73.70
2023-01-29T10:14:19.831Z,73.50
2023-01-29T10:17:02.407Z,72.50
2023-01-29T10:19:53.753Z,72.40
2023-01-29T10:23:00.400Z,72.10
2023-01-29T10:25:30.167Z,72.00
2023-01-29T10:28:00.681Z,71.70
2023-01-29T10:30:33.456Z,71.60
2023-01-29T10:33:04.579Z,71.40
2023-01-29T10:35:36.759Z,71.20
2023-01-29T10:38:25.245Z,70.70
2023-01-29T10:41:04.491Z,70.50
2023-01-29T10:43:40.523Z,70.50
2023-01-29T10:46:23.209Z,70.60
2023-01-29T10:49:09.333Z,70.20
2023-01-29T10:51:56.282Z,70.00
2023-01-29T10:54:37.954Z,69.80
2023-01-29T10:57:16.140Z,70.00
2023-01-29T11:00:02.365Z,69.70
2023-01-29T11:10:03.921Z,69.10
2023-01-29T11:12:34.294Z,69.50
2023-01-29T11:15:07.970Z,69.30
2023-01-29T11:20:26.495Z,69.30
2023-01-29T11:22:56.354Z,67.20
2023-01-29T11:27:57.764Z,67.30
2023-01-29T11:30:28.251Z,67.80
2023-01-29T11:33:08.261Z,67.90
2023-01-29T11:38:18.506Z,67.10
2023-01-29T11:43:29.398Z,67.10
2023-01-29T11:46:00.254Z,66.10
2023-01-29T11:48:36.296Z,66.30
2023-01-29T11:53:40.889Z,66.30
2023-01-29T11:56:21.705Z,65.90
2023-01-29T11:58:52.857Z,66.30
2023-01-29T12:01:34.407Z,66.90
2023-01-29T12:06:36.598Z,66.80
2023-01-29T12:09:14.456Z,67.10
2023-01-29T12:14:28.594Z,67.10
2023-01-29T12:17:00.883Z,67.00
2023-01-29T12:19:35.569Z,67.00
2023-01-29T12:22:07.811Z,67.10
2023-01-29T12:24:42.391Z,66.00
2023-01-29T12:27:16.851Z,70.30
2023-01-29T12:29:51.105Z,68.10
2023-01-29T12:32:29.539Z,66.90
2023-01-29T12:35:07.993Z,67.10
2023-01-29T12:37:42.238Z,67.20
2023-01-29T12:40:16.072Z,67.20
2023-01-29T12:42:49.969Z,67.10
2023-01-29T12:45:22.457Z,66.90
2023-01-29T12:47:56.853Z,67.10
2023-01-29T12:50:35.176Z,68.00
2023-01-29T12:53:09.649Z,66.60
2023-01-29T12:55:43.372Z,66.70
2023-01-29T12:58:16.239Z,66.90
2023-01-29T13:00:50.754Z,67.40
2023-01-29T13:03:24.180Z,67.50
2023-01-29T13:05:55.654Z,67.00
2023-01-29T13:08:28.816Z,67.30
2023-01-29T13:11:00.937Z,66.80
2023-01-29T13:13:34.165Z,66.40
2023-01-29T13:16:06.748Z,65.70
2023-01-29T13:18:42.803Z,67.50
2023-01-29T13:21:16.581Z,66.30
2023-01-29T13:23:48.338Z,66.60
2023-01-29T13:26:20.364Z,66.70
2023-01-29T13:31:39.190Z,67.00
2023-01-29T13:34:15.022Z,67.00
2023-01-29T13:36:46.419Z,69.70
2023-01-29T13:39:26.052Z,67.50
2023-01-29T13:41:55.725Z,67.30
2023-01-29T13:44:27.734Z,67.40
2023-01-29T13:46:59.867Z,67.10
2023-01-29T13:49:38.594Z,67.50
2023-01-29T13:52:22.450Z,68.00
2023-01-29T13:54:57.348Z,67.80
2023-01-29T13:57:54.683Z,68.00
2023-01-29T14:01:01.159Z,67.80
2023-01-29T14:04:04.798Z,68.20
2023-01-29T14:06:49.267Z,68.10
2023-01-29T14:09:51.467Z,68.60
2023-01-29T14:12:41.128Z,69.10
2023-01-29T14:15:31.560Z,81.50
2023-01-29T14:18:18.363Z,74.20
2023-01-29T14:21:06.100Z,68.80
2023-01-29T14:23:42.153Z,68.60
2023-01-29T14:26:27.443Z,68.30
2023-01-29T14:29:01.634Z,68.50
2023-01-29T14:31:40.438Z,91.70
2023-01-29T14:34:17.355Z,68.50
2023-01-29T14:36:50.460Z,69.00
2023-01-29T14:39:25.122Z,69.20
2023-01-29T14:41:54.319Z,69.50
2023-01-29T14:44:48.447Z,86.60
2023-01-29T14:47:43.510Z,69.70
2023-01-29T14:50:44.860Z,69.80
2023-01-29T14:53:19.556Z,70.10
2023-01-29T14:55:53.881Z,70.10
2023-01-29T14:58:28.632Z,69.90
2023-01-29T15:00:59.682Z,69.90
2023-01-29T15:03:42.836Z,69.70
2023-01-29T15:06:18.535Z,90.00
2023-01-29T15:08:56.951Z,69.00
2023-01-29T15:11:35.151Z,69.10
2023-01-29T15:14:28.065Z,69.50
2023-01-29T15:17:08.725Z,69.50
2023-01-29T15:19:40.340Z,69.70
2023-01-29T15:22:11.371Z,69.90
2023-01-29T15:24:42.476Z,70.00
2023-01-29T15:27:15.517Z,70.20
2023-01-29T15:29:45.965Z,70.10
2023-01-29T15:32:29.800Z,69.80
2023-01-29T15:34:59.049Z,69.60
2023-01-29T15:37:39.268Z,69.70
2023-01-29T15:40:17.724Z,69.70
2023-01-29T15:42:48.671Z,69.90
2023-01-29T15:45:25.842Z,69.90
2023-01-29T15:47:58.355Z,70.30
2023-01-29T15:52:56.098Z,69.70
2023-01-29T15:55:26.711Z,69.50
2023-01-29T16:00:27.363Z,70.80
2023-01-29T16:05:29.921Z,69.10
2023-01-29T16:08:00.044Z,69.50
2023-01-29T16:10:32.435Z,68.90
2023-01-29T16:13:01.505Z,69.10
2023-01-29T16:15:33.601Z,69.30
2023-01-29T16:18:03.633Z,69.20
2023-01-29T16:20:41.378Z,69.20
2023-01-29T16:23:18.669Z,69.30
2023-01-29T16:25:50.942Z,69.60
2023-01-29T16:28:20.116Z,69.70
2023-01-29T16:33:28.444Z,69.30
2023-01-29T16:36:32.127Z,69.40
2023-01-29T16:39:23.697Z,69.40
2023-01-29T16:42:34.336Z,69.50
2023-01-29T16:45:28.161Z,69.60
2023-01-29T16:51:15.398Z,71.20
2023-01-29T16:53:56.489Z,69.90
2023-01-29T16:58:58.264Z,69.70
2023-01-29T17:01:29.790Z,69.40
2023-01-29T17:04:07.659Z,69.50
2023-01-29T17:06:41.599Z,70.70
2023-01-29T17:11:43.111Z,69.90
2023-01-29T17:14:20.253Z,70.10
2023-01-29T17:16:53.373Z,70.20
2023-01-29T17:29:25.082Z,70.20
2023-01-29T17:39:23.385Z,70.20
2023-01-29T17:41:53.356Z,70.50
2023-01-29T17:44:23.134Z,70.50
2023-01-29T17:49:25.116Z,70.80
2023-01-29T17:54:22.910Z,71.10
2023-01-29T17:56:52.072Z,71.00
2023-01-29T17:59:24.111Z,70.50
2023-01-29T18:01:53.258Z,70.20
2023-01-29T18:06:52.863Z,69.70
2023-01-29T18:09:25.518Z,69.60
2023-01-29T18:14:27.685Z,69.80
2023-01-29T18:16:57.357Z,74.70
2023-01-29T18:19:28.352Z,70.00
2023-01-29T18:29:29.987Z,70.00
2023-01-29T18:34:46.000Z,70.10
2023-01-29T18:39:45.462Z,70.40
2023-01-29T18:44:56.046Z,70.40
2023-01-29T19:00:13.893Z,70.70
2023-01-29T19:07:41.842Z,71.30
2023-01-29T19:10:12.727Z,70.80
2023-01-29T19:15:12.685Z,70.80
2023-01-29T19:20:11.057Z,73.80
2023-01-29T19:22:40.966Z,70.80
2023-01-29T19:25:10.266Z,72.30
2023-01-29T19:30:07.824Z,72.10
2023-01-29T19:32:37.464Z,71.50
2023-01-29T19:40:04.832Z,70.80
2023-01-29T19:50:02.966Z,71.00
2023-01-29T19:57:55.315Z,71.10
2023-01-29T20:05:27.090Z,71.30
2023-01-29T20:15:24.328Z,71.80
2023-01-29T20:23:02.788Z,71.50
2023-01-29T20:25:35.604Z,71.50
2023-01-29T20:33:05.452Z,72.10
2023-01-29T20:38:07.909Z,71.60
2023-01-29T20:55:35.262Z,72.20
2023-01-29T21:12:59.615Z,71.60
2023-01-29T21:30:21.728Z,70.80
2023-01-29T21:45:31.490Z,72.00
2023-01-29T22:02:59.228Z,72.10
2023-01-29T22:07:58.243Z,72.10
2023-01-29T22:15:40.867Z,72.00
2023-01-29T22:18:10.358Z,71.90
2023-01-29T22:20:45.169Z,72.00
2023-01-29T22:33:11.453Z,72.10
2023-01-29T22:50:31.883Z,72.50
2023-01-29T23:07:51.653Z,72.50
2023-01-29T23:15:17.365Z,92.20
2023-01-29T23:25:12.511Z,93.30
2023-01-29T23:30:09.498Z,72.90
2023-01-29T23:37:36.989Z,72.60
2023-01-29T23:42:35.032Z,72.50
2023-01-29T23:59:54.702Z,72.40
